sensor_id;sensor_type;location;lat;lon;timestamp;P1;durP1;ratioP1;P2;durP2;ratioP2
16254;SDS011;8235;52.198;9.904;2022-09-19T00:01:10;5.00;;;1.73;;
16254;SDS011;8235;52.198;9.904;2022-09-19T00:03:38;4.73;;;2.00;;
16254;SDS011;8235;52.198;9.904;2022-09-19T00:06:07;3.13;;;1.73;;
16254;SDS011;8235;52.198;9.904;2022-09-19T00:08:36;5.07;;;1.63;;
16254;SDS011;8235;52.198;9.904;2022-09-19T00:11:04;5.90;;;2.40;;
16254;SDS011;8235;52.198;9.904;2022-09-19T00:13:33;5.13;;;1.90;;
16254;SDS011;8235;52.198;9.904;2022-09-19T00:16:09;5.40;;;2.00;;
16254;SDS011;8235;52.198;9.904;2022-09-19T00:18:36;6.27;;;2.17;;
16254;SDS011;8235;52.198;9.904;2022-09-19T00:21:02;7.63;;;2.10;;
16254;SDS011;8235;52.198;9.904;2022-09-19T00:23:29;10.20;;;2.17;;
16254;SDS011;8235;52.198;9.904;2022-09-19T00:26:14;6.87;;;2.47;;
16254;SDS011;8235;52.198;9.904;2022-09-19T00:28:42;4.63;;;1.93;;
16254;SDS011;8235;52.198;9.904;2022-09-19T00:31:11;4.47;;;2.03;;
16254;SDS011;8235;52.198;9.904;2022-09-19T00:33:41;7.43;;;2.90;;
16254;SDS011;8235;52.198;9.904;2022-09-19T00:36:07;6.60;;;2.80;;
16254;SDS011;8235;52.198;9.904;2022-09-19T00:38:34;6.90;;;2.30;;
16254;SDS011;8235;52.198;9.904;2022-09-19T00:41:00;2.87;;;2.10;;
16254;SDS011;8235;52.198;9.904;2022-09-19T00:46:21;3.93;;;2.00;;
16254;SDS011;8235;52.198;9.904;2022-09-19T00:48:50;3.60;;;1.80;;
16254;SDS011;8235;52.198;9.904;2022-09-19T00:51:21;4.43;;;2.07;;
16254;SDS011;8235;52.198;9.904;2022-09-19T00:53:56;4.37;;;1.87;;
16254;SDS011;8235;52.198;9.904;2022-09-19T00:56:24;5.90;;;2.10;;
16254;SDS011;8235;52.198;9.904;2022-09-19T01:01:20;7.10;;;1.80;;
16254;SDS011;8235;52.198;9.904;2022-09-19T01:03:46;5.47;;;1.93;;
16254;SDS011;8235;52.198;9.904;2022-09-19T01:06:17;4.77;;;1.97;;
16254;SDS011;8235;52.198;9.904;2022-09-19T01:09:07;5.90;;;1.97;;
16254;SDS011;8235;52.198;9.904;2022-09-19T01:12:10;4.07;;;1.70;;
16254;SDS011;8235;52.198;9.904;2022-09-19T01:14:55;3.47;;;2.00;;
16254;SDS011;8235;52.198;9.904;2022-09-19T01:17:46;6.83;;;2.17;;
16254;SDS011;8235;52.198;9.904;2022-09-19T01:26:20;3.93;;;2.17;;
16254;SDS011;8235;52.198;9.904;2022-09-19T01:29:03;2.77;;;1.73;;
16254;SDS011;8235;52.198;9.904;2022-09-19T01:31:33;4.00;;;2.30;;
16254;SDS011;8235;52.198;9.904;2022-09-19T01:34:04;5.33;;;2.47;;
16254;SDS011;8235;52.198;9.904;2022-09-19T01:36:35;3.47;;;1.70;;
16254;SDS011;8235;52.198;9.904;2022-09-19T01:39:06;4.67;;;1.70;;
16254;SDS011;8235;52.198;9.904;2022-09-19T01:41:35;1.80;;;1.30;;
16254;SDS011;8235;52.198;9.904;2022-09-19T01:44:04;3.00;;;1.70;;
16254;SDS011;8235;52.198;9.904;2022-09-19T01:46:35;4.90;;;1.57;;
16254;SDS011;8235;52.198;9.904;2022-09-19T01:49:10;6.23;;;1.30;;
16254;SDS011;8235;52.198;9.904;2022-09-19T01:51:47;3.67;;;1.37;;
16254;SDS011;8235;52.198;9.904;2022-09-19T01:54:26;3.73;;;1.10;;
16254;SDS011;8235;52.198;9.904;2022-09-19T01:57:01;5.63;;;1.47;;
16254;SDS011;8235;52.198;9.904;2022-09-19T01:59:41;6.33;;;1.47;;
16254;SDS011;8235;52.198;9.904;2022-09-19T02:02:19;2.10;;;1.00;;
16254;SDS011;8235;52.198;9.904;2022-09-19T02:04:57;3.57;;;1.07;;
16254;SDS011;8235;52.198;9.904;2022-09-19T02:07:31;1.70;;;0.90;;
16254;SDS011;8235;52.198;9.904;2022-09-19T02:10:08;2.20;;;1.10;;
16254;SDS011;8235;52.198;9.904;2022-09-19T02:12:39;4.03;;;1.30;;
16254;SDS011;8235;52.198;9.904;2022-09-19T02:15:10;5.27;;;1.00;;
16254;SDS011;8235;52.198;9.904;2022-09-19T02:17:42;4.13;;;0.80;;
16254;SDS011;8235;52.198;9.904;2022-09-19T02:20:15;3.23;;;0.80;;
16254;SDS011;8235;52.198;9.904;2022-09-19T02:22:47;2.87;;;1.27;;
16254;SDS011;8235;52.198;9.904;2022-09-19T02:25:15;3.57;;;0.80;;
16254;SDS011;8235;52.198;9.904;2022-09-19T02:27:47;5.47;;;1.17;;
16254;SDS011;8235;52.198;9.904;2022-09-19T02:30:19;3.27;;;0.80;;
16254;SDS011;8235;52.198;9.904;2022-09-19T02:32:46;3.10;;;0.80;;
16254;SDS011;8235;52.198;9.904;2022-09-19T02:35:15;5.30;;;1.17;;
16254;SDS011;8235;52.198;9.904;2022-09-19T02:37:46;3.33;;;1.00;;
16254;SDS011;8235;52.198;9.904;2022-09-19T02:40:18;3.80;;;1.10;;
16254;SDS011;8235;52.198;9.904;2022-09-19T02:42:50;6.87;;;1.27;;
16254;SDS011;8235;52.198;9.904;2022-09-19T02:45:23;7.57;;;1.37;;
16254;SDS011;8235;52.198;9.904;2022-09-19T02:47:57;5.70;;;1.00;;
16254;SDS011;8235;52.198;9.904;2022-09-19T02:50:29;4.27;;;1.40;;
16254;SDS011;8235;52.198;9.904;2022-09-19T02:53:03;4.90;;;1.50;;
16254;SDS011;8235;52.198;9.904;2022-09-19T02:55:34;6.13;;;1.90;;
16254;SDS011;8235;52.198;9.904;2022-09-19T02:58:09;6.03;;;1.43;;
16254;SDS011;8235;52.198;9.904;2022-09-19T03:00:41;4.57;;;1.73;;
16254;SDS011;8235;52.198;9.904;2022-09-19T03:03:12;4.97;;;1.10;;
16254;SDS011;8235;52.198;9.904;2022-09-19T03:05:59;3.40;;;1.30;;
16254;SDS011;8235;52.198;9.904;2022-09-19T03:08:30;4.10;;;1.53;;
16254;SDS011;8235;52.198;9.904;2022-09-19T03:11:01;4.37;;;1.70;;
16254;SDS011;8235;52.198;9.904;2022-09-19T03:13:33;5.20;;;2.00;;
16254;SDS011;8235;52.198;9.904;2022-09-19T03:16:03;6.20;;;1.90;;
16254;SDS011;8235;52.198;9.904;2022-09-19T03:18:32;5.03;;;2.60;;
16254;SDS011;8235;52.198;9.904;2022-09-19T03:21:02;4.43;;;2.17;;
16254;SDS011;8235;52.198;9.904;2022-09-19T03:23:33;7.87;;;2.60;;
16254;SDS011;8235;52.198;9.904;2022-09-19T03:26:02;5.40;;;2.13;;
16254;SDS011;8235;52.198;9.904;2022-09-19T03:28:30;5.37;;;2.20;;
16254;SDS011;8235;52.198;9.904;2022-09-19T03:30:56;6.87;;;2.27;;
16254;SDS011;8235;52.198;9.904;2022-09-19T03:33:26;8.20;;;2.27;;
16254;SDS011;8235;52.198;9.904;2022-09-19T03:35:53;6.30;;;2.20;;
16254;SDS011;8235;52.198;9.904;2022-09-19T03:38:21;6.13;;;2.23;;
16254;SDS011;8235;52.198;9.904;2022-09-19T03:40:48;5.80;;;2.30;;
16254;SDS011;8235;52.198;9.904;2022-09-19T03:43:14;10.27;;;3.10;;
16254;SDS011;8235;52.198;9.904;2022-09-19T03:45:41;4.40;;;1.80;;
16254;SDS011;8235;52.198;9.904;2022-09-19T03:48:08;6.57;;;2.60;;
16254;SDS011;8235;52.198;9.904;2022-09-19T03:50:35;5.40;;;2.20;;
16254;SDS011;8235;52.198;9.904;2022-09-19T03:53:02;7.43;;;1.90;;
16254;SDS011;8235;52.198;9.904;2022-09-19T03:55:28;8.80;;;2.27;;
16254;SDS011;8235;52.198;9.904;2022-09-19T03:57:55;6.20;;;2.07;;
16254;SDS011;8235;52.198;9.904;2022-09-19T04:00:21;5.67;;;2.20;;
16254;SDS011;8235;52.198;9.904;2022-09-19T04:02:48;6.30;;;2.00;;
16254;SDS011;8235;52.198;9.904;2022-09-19T04:05:15;4.87;;;2.00;;
16254;SDS011;8235;52.198;9.904;2022-09-19T04:07:43;3.97;;;1.90;;
16254;SDS011;8235;52.198;9.904;2022-09-19T04:10:09;6.50;;;2.00;;
16254;SDS011;8235;52.198;9.904;2022-09-19T04:12:36;6.00;;;1.70;;
16254;SDS011;8235;52.198;9.904;2022-09-19T04:15:03;3.60;;;1.40;;
16254;SDS011;8235;52.198;9.904;2022-09-19T04:17:30;6.20;;;1.97;;
16254;SDS011;8235;52.198;9.904;2022-09-19T04:19:57;2.97;;;1.60;;
16254;SDS011;8235;52.198;9.904;2022-09-19T04:22:23;3.57;;;1.50;;
16254;SDS011;8235;52.198;9.904;2022-09-19T04:24:51;3.00;;;1.60;;
16254;SDS011;8235;52.198;9.904;2022-09-19T04:27:18;6.03;;;1.70;;
16254;SDS011;8235;52.198;9.904;2022-09-19T04:29:44;3.47;;;1.20;;
16254;SDS011;8235;52.198;9.904;2022-09-19T04:32:11;3.80;;;1.27;;
16254;SDS011;8235;52.198;9.904;2022-09-19T04:34:39;4.57;;;1.20;;
16254;SDS011;8235;52.198;9.904;2022-09-19T04:37:08;3.47;;;1.40;;
16254;SDS011;8235;52.198;9.904;2022-09-19T04:39:35;6.97;;;1.20;;
16254;SDS011;8235;52.198;9.904;2022-09-19T04:42:04;4.33;;;1.07;;
16254;SDS011;8235;52.198;9.904;2022-09-19T04:44:30;5.40;;;1.43;;
16254;SDS011;8235;52.198;9.904;2022-09-19T04:46:57;4.57;;;1.57;;
16254;SDS011;8235;52.198;9.904;2022-09-19T04:49:23;4.33;;;1.27;;
16254;SDS011;8235;52.198;9.904;2022-09-19T04:51:59;5.83;;;1.13;;
16254;SDS011;8235;52.198;9.904;2022-09-19T04:54:26;6.00;;;1.20;;
16254;SDS011;8235;52.198;9.904;2022-09-19T04:56:53;3.13;;;1.00;;
16254;SDS011;8235;52.198;9.904;2022-09-19T04:59:21;8.97;;;1.20;;
16254;SDS011;8235;52.198;9.904;2022-09-19T05:01:47;7.40;;;1.90;;
16254;SDS011;8235;52.198;9.904;2022-09-19T05:04:14;2.63;;;0.90;;
16254;SDS011;8235;52.198;9.904;2022-09-19T05:06:42;3.83;;;1.10;;
16254;SDS011;8235;52.198;9.904;2022-09-19T05:09:08;4.93;;;1.10;;
16254;SDS011;8235;52.198;9.904;2022-09-19T05:11:36;4.07;;;1.30;;
16254;SDS011;8235;52.198;9.904;2022-09-19T05:14:05;4.00;;;1.40;;
16254;SDS011;8235;52.198;9.904;2022-09-19T05:16:35;3.93;;;1.13;;
16254;SDS011;8235;52.198;9.904;2022-09-19T05:19:02;4.60;;;1.90;;
16254;SDS011;8235;52.198;9.904;2022-09-19T05:21:28;4.10;;;2.30;;
16254;SDS011;8235;52.198;9.904;2022-09-19T05:23:55;7.47;;;2.13;;
16254;SDS011;8235;52.198;9.904;2022-09-19T05:26:21;7.13;;;2.47;;
16254;SDS011;8235;52.198;9.904;2022-09-19T05:28:48;2.80;;;1.63;;
16254;SDS011;8235;52.198;9.904;2022-09-19T05:31:15;5.23;;;2.10;;
16254;SDS011;8235;52.198;9.904;2022-09-19T05:33:46;4.07;;;1.83;;
16254;SDS011;8235;52.198;9.904;2022-09-19T05:36:13;2.60;;;2.40;;
16254;SDS011;8235;52.198;9.904;2022-09-19T05:38:39;6.83;;;2.43;;
16254;SDS011;8235;52.198;9.904;2022-09-19T05:41:06;4.87;;;2.47;;
16254;SDS011;8235;52.198;9.904;2022-09-19T05:43:33;6.70;;;2.30;;
16254;SDS011;8235;52.198;9.904;2022-09-19T05:45:59;4.10;;;2.50;;
16254;SDS011;8235;52.198;9.904;2022-09-19T05:48:26;5.60;;;2.77;;
16254;SDS011;8235;52.198;9.904;2022-09-19T05:50:56;4.83;;;2.50;;
16254;SDS011;8235;52.198;9.904;2022-09-19T05:53:22;6.00;;;2.50;;
16254;SDS011;8235;52.198;9.904;2022-09-19T05:56:07;4.63;;;2.70;;
16254;SDS011;8235;52.198;9.904;2022-09-19T05:58:34;3.23;;;2.87;;
16254;SDS011;8235;52.198;9.904;2022-09-19T06:01:02;3.73;;;1.97;;
16254;SDS011;8235;52.198;9.904;2022-09-19T06:03:30;2.90;;;1.80;;
16254;SDS011;8235;52.198;9.904;2022-09-19T06:05:58;3.13;;;1.70;;
16254;SDS011;8235;52.198;9.904;2022-09-19T06:08:24;4.00;;;1.80;;
16254;SDS011;8235;52.198;9.904;2022-09-19T06:10:51;5.60;;;2.00;;
16254;SDS011;8235;52.198;9.904;2022-09-19T06:13:19;5.37;;;2.40;;
16254;SDS011;8235;52.198;9.904;2022-09-19T06:15:46;4.83;;;2.20;;
16254;SDS011;8235;52.198;9.904;2022-09-19T06:18:13;4.67;;;2.20;;
16254;SDS011;8235;52.198;9.904;2022-09-19T06:20:40;4.20;;;1.60;;
16254;SDS011;8235;52.198;9.904;2022-09-19T06:23:08;5.47;;;1.80;;
16254;SDS011;8235;52.198;9.904;2022-09-19T06:25:36;5.93;;;1.70;;
16254;SDS011;8235;52.198;9.904;2022-09-19T06:28:04;4.40;;;1.80;;
16254;SDS011;8235;52.198;9.904;2022-09-19T06:30:33;7.60;;;2.00;;
16254;SDS011;8235;52.198;9.904;2022-09-19T06:32:59;8.03;;;2.03;;
16254;SDS011;8235;52.198;9.904;2022-09-19T06:35:26;5.23;;;1.90;;
16254;SDS011;8235;52.198;9.904;2022-09-19T06:37:57;7.20;;;1.70;;
16254;SDS011;8235;52.198;9.904;2022-09-19T06:40:25;2.77;;;1.30;;
16254;SDS011;8235;52.198;9.904;2022-09-19T06:42:55;5.37;;;1.90;;
16254;SDS011;8235;52.198;9.904;2022-09-19T06:45:24;4.60;;;1.70;;
16254;SDS011;8235;52.198;9.904;2022-09-19T06:47:54;3.10;;;1.57;;
16254;SDS011;8235;52.198;9.904;2022-09-19T06:50:21;4.03;;;1.50;;
16254;SDS011;8235;52.198;9.904;2022-09-19T06:52:49;5.07;;;1.70;;
16254;SDS011;8235;52.198;9.904;2022-09-19T06:55:15;7.20;;;2.60;;
16254;SDS011;8235;52.198;9.904;2022-09-19T06:57:43;6.00;;;2.10;;
16254;SDS011;8235;52.198;9.904;2022-09-19T07:00:18;5.03;;;1.57;;
16254;SDS011;8235;52.198;9.904;2022-09-19T07:02:45;4.10;;;1.80;;
16254;SDS011;8235;52.198;9.904;2022-09-19T07:05:11;4.03;;;1.63;;
16254;SDS011;8235;52.198;9.904;2022-09-19T07:07:38;6.40;;;2.30;;
16254;SDS011;8235;52.198;9.904;2022-09-19T07:10:04;6.80;;;2.03;;
16254;SDS011;8235;52.198;9.904;2022-09-19T07:12:32;3.70;;;2.13;;
16254;SDS011;8235;52.198;9.904;2022-09-19T07:15:00;7.70;;;1.97;;
16254;SDS011;8235;52.198;9.904;2022-09-19T07:17:26;5.80;;;2.17;;
16254;SDS011;8235;52.198;9.904;2022-09-19T07:19:53;6.43;;;2.03;;
16254;SDS011;8235;52.198;9.904;2022-09-19T07:22:19;5.77;;;1.87;;
16254;SDS011;8235;52.198;9.904;2022-09-19T07:24:48;3.23;;;1.87;;
16254;SDS011;8235;52.198;9.904;2022-09-19T07:27:15;7.07;;;1.83;;
16254;SDS011;8235;52.198;9.904;2022-09-19T07:29:42;5.37;;;1.90;;
16254;SDS011;8235;52.198;9.904;2022-09-19T07:32:09;8.10;;;1.70;;
16254;SDS011;8235;52.198;9.904;2022-09-19T07:34:36;7.37;;;1.80;;
16254;SDS011;8235;52.198;9.904;2022-09-19T07:37:03;6.27;;;2.00;;
16254;SDS011;8235;52.198;9.904;2022-09-19T07:39:29;6.13;;;1.87;;
16254;SDS011;8235;52.198;9.904;2022-09-19T07:41:55;7.27;;;2.67;;
16254;SDS011;8235;52.198;9.904;2022-09-19T07:44:22;5.40;;;1.40;;
16254;SDS011;8235;52.198;9.904;2022-09-19T07:46:49;6.17;;;1.50;;
16254;SDS011;8235;52.198;9.904;2022-09-19T07:49:31;7.97;;;1.77;;
16254;SDS011;8235;52.198;9.904;2022-09-19T07:51:58;4.00;;;1.80;;
16254;SDS011;8235;52.198;9.904;2022-09-19T07:54:24;5.27;;;1.43;;
16254;SDS011;8235;52.198;9.904;2022-09-19T07:56:51;5.77;;;1.27;;
16254;SDS011;8235;52.198;9.904;2022-09-19T07:59:17;3.17;;;1.90;;
16254;SDS011;8235;52.198;9.904;2022-09-19T08:01:43;6.70;;;2.00;;
16254;SDS011;8235;52.198;9.904;2022-09-19T08:04:10;7.13;;;1.90;;
16254;SDS011;8235;52.198;9.904;2022-09-19T08:06:38;6.97;;;1.70;;
16254;SDS011;8235;52.198;9.904;2022-09-19T08:09:04;6.57;;;2.07;;
16254;SDS011;8235;52.198;9.904;2022-09-19T08:11:32;5.83;;;1.43;;
16254;SDS011;8235;52.198;9.904;2022-09-19T08:14:00;7.90;;;1.70;;
16254;SDS011;8235;52.198;9.904;2022-09-19T08:16:27;6.70;;;1.97;;
16254;SDS011;8235;52.198;9.904;2022-09-19T08:18:53;6.10;;;1.43;;
16254;SDS011;8235;52.198;9.904;2022-09-19T08:21:20;6.93;;;2.00;;
16254;SDS011;8235;52.198;9.904;2022-09-19T08:23:47;8.47;;;1.97;;
16254;SDS011;8235;52.198;9.904;2022-09-19T08:26:14;5.43;;;1.60;;
16254;SDS011;8235;52.198;9.904;2022-09-19T08:28:42;14.37;;;2.03;;
16254;SDS011;8235;52.198;9.904;2022-09-19T08:31:08;4.17;;;2.03;;
16254;SDS011;8235;52.198;9.904;2022-09-19T08:33:35;9.30;;;1.80;;
16254;SDS011;8235;52.198;9.904;2022-09-19T08:36:02;4.40;;;1.50;;
16254;SDS011;8235;52.198;9.904;2022-09-19T08:38:29;6.37;;;2.07;;
16254;SDS011;8235;52.198;9.904;2022-09-19T08:41:07;5.53;;;1.90;;
16254;SDS011;8235;52.198;9.904;2022-09-19T08:43:46;8.37;;;1.83;;
16254;SDS011;8235;52.198;9.904;2022-09-19T08:46:21;7.60;;;2.13;;
16254;SDS011;8235;52.198;9.904;2022-09-19T08:48:58;8.30;;;1.63;;
16254;SDS011;8235;52.198;9.904;2022-09-19T08:51:29;6.47;;;1.80;;
16254;SDS011;8235;52.198;9.904;2022-09-19T08:54:00;9.87;;;2.13;;
16254;SDS011;8235;52.198;9.904;2022-09-19T08:56:33;13.50;;;2.10;;
16254;SDS011;8235;52.198;9.904;2022-09-19T08:59:03;7.30;;;1.93;;
16254;SDS011;8235;52.198;9.904;2022-09-19T09:01:35;8.17;;;1.50;;
16254;SDS011;8235;52.198;9.904;2022-09-19T09:04:15;6.50;;;1.67;;
16254;SDS011;8235;52.198;9.904;2022-09-19T09:06:52;7.53;;;1.67;;
16254;SDS011;8235;52.198;9.904;2022-09-19T09:09:31;7.03;;;1.60;;
16254;SDS011;8235;52.198;9.904;2022-09-19T09:12:06;9.57;;;1.90;;
16254;SDS011;8235;52.198;9.904;2022-09-19T09:14:46;6.83;;;1.80;;
16254;SDS011;8235;52.198;9.904;2022-09-19T09:17:20;7.53;;;1.53;;
16254;SDS011;8235;52.198;9.904;2022-09-19T09:20:01;9.10;;;1.83;;
16254;SDS011;8235;52.198;9.904;2022-09-19T09:22:36;6.57;;;1.60;;
16254;SDS011;8235;52.198;9.904;2022-09-19T09:25:08;7.30;;;1.50;;
16254;SDS011;8235;52.198;9.904;2022-09-19T09:27:42;12.77;;;1.93;;
16254;SDS011;8235;52.198;9.904;2022-09-19T09:30:17;6.20;;;2.03;;
16254;SDS011;8235;52.198;9.904;2022-09-19T09:32:46;6.90;;;1.80;;
16254;SDS011;8235;52.198;9.904;2022-09-19T09:35:20;6.57;;;1.43;;
16254;SDS011;8235;52.198;9.904;2022-09-19T09:37:53;7.73;;;1.60;;
16254;SDS011;8235;52.198;9.904;2022-09-19T09:40:31;11.90;;;2.83;;
16254;SDS011;8235;52.198;9.904;2022-09-19T09:43:28;6.80;;;1.63;;
16254;SDS011;8235;52.198;9.904;2022-09-19T09:46:00;12.50;;;1.80;;
16254;SDS011;8235;52.198;9.904;2022-09-19T09:48:34;9.27;;;1.63;;
16254;SDS011;8235;52.198;9.904;2022-09-19T09:51:06;7.97;;;1.70;;
16254;SDS011;8235;52.198;9.904;2022-09-19T09:53:46;9.87;;;1.90;;
16254;SDS011;8235;52.198;9.904;2022-09-19T09:56:24;6.67;;;1.63;;
16254;SDS011;8235;52.198;9.904;2022-09-19T09:59:04;7.63;;;1.80;;
16254;SDS011;8235;52.198;9.904;2022-09-19T10:02:00;10.37;;;2.27;;
16254;SDS011;8235;52.198;9.904;2022-09-19T10:05:00;10.00;;;2.33;;
16254;SDS011;8235;52.198;9.904;2022-09-19T10:07:34;7.33;;;1.47;;
16254;SDS011;8235;52.198;9.904;2022-09-19T10:10:08;6.53;;;1.97;;
16254;SDS011;8235;52.198;9.904;2022-09-19T10:12:40;5.57;;;1.93;;
16254;SDS011;8235;52.198;9.904;2022-09-19T10:15:16;6.17;;;1.70;;
16254;SDS011;8235;52.198;9.904;2022-09-19T10:17:46;7.33;;;1.47;;
16254;SDS011;8235;52.198;9.904;2022-09-19T10:20:17;7.67;;;1.63;;
16254;SDS011;8235;52.198;9.904;2022-09-19T10:22:47;5.60;;;1.70;;
16254;SDS011;8235;52.198;9.904;2022-09-19T10:25:15;6.57;;;2.00;;
16254;SDS011;8235;52.198;9.904;2022-09-19T10:27:43;5.97;;;1.57;;
16254;SDS011;8235;52.198;9.904;2022-09-19T10:30:12;1.97;;;0.90;;
16254;SDS011;8235;52.198;9.904;2022-09-19T10:32:43;2.80;;;0.90;;
16254;SDS011;8235;52.198;9.904;2022-09-19T10:35:19;5.40;;;1.00;;
16254;SDS011;8235;52.198;9.904;2022-09-19T10:37:51;3.80;;;0.90;;
16254;SDS011;8235;52.198;9.904;2022-09-19T10:40:18;5.60;;;1.13;;
16254;SDS011;8235;52.198;9.904;2022-09-19T10:42:45;4.27;;;1.00;;
16254;SDS011;8235;52.198;9.904;2022-09-19T10:45:17;3.37;;;1.20;;
16254;SDS011;8235;52.198;9.904;2022-09-19T10:47:50;2.37;;;0.70;;
16254;SDS011;8235;52.198;9.904;2022-09-19T10:50:20;4.30;;;1.27;;
16254;SDS011;8235;52.198;9.904;2022-09-19T10:52:48;2.27;;;1.03;;
16254;SDS011;8235;52.198;9.904;2022-09-19T10:55:17;2.30;;;0.83;;
16254;SDS011;8235;52.198;9.904;2022-09-19T10:57:48;3.93;;;0.90;;
16254;SDS011;8235;52.198;9.904;2022-09-19T11:00:26;2.27;;;0.70;;
16254;SDS011;8235;52.198;9.904;2022-09-19T11:02:56;5.33;;;0.73;;
16254;SDS011;8235;52.198;9.904;2022-09-19T11:05:25;4.33;;;0.93;;
16254;SDS011;8235;52.198;9.904;2022-09-19T11:07:54;5.27;;;0.90;;
16254;SDS011;8235;52.198;9.904;2022-09-19T11:10:28;3.97;;;0.90;;
16254;SDS011;8235;52.198;9.904;2022-09-19T11:13:04;5.27;;;1.00;;
16254;SDS011;8235;52.198;9.904;2022-09-19T11:15:32;3.23;;;0.60;;
16254;SDS011;8235;52.198;9.904;2022-09-19T11:18:05;2.53;;;0.70;;
16254;SDS011;8235;52.198;9.904;2022-09-19T11:20:42;4.00;;;0.87;;
16254;SDS011;8235;52.198;9.904;2022-09-19T11:26:09;2.73;;;0.80;;
16254;SDS011;8235;52.198;9.904;2022-09-19T11:28:51;2.87;;;0.80;;
16254;SDS011;8235;52.198;9.904;2022-09-19T11:31:28;4.83;;;1.00;;
16254;SDS011;8235;52.198;9.904;2022-09-19T11:34:08;5.60;;;1.00;;
16254;SDS011;8235;52.198;9.904;2022-09-19T11:36:42;4.53;;;1.10;;
16254;SDS011;8235;52.198;9.904;2022-09-19T11:39:26;3.50;;;0.60;;
16254;SDS011;8235;52.198;9.904;2022-09-19T11:42:08;2.53;;;0.50;;
16254;SDS011;8235;52.198;9.904;2022-09-19T11:44:52;2.93;;;0.70;;
16254;SDS011;8235;52.198;9.904;2022-09-19T11:47:40;2.43;;;0.93;;
16254;SDS011;8235;52.198;9.904;2022-09-19T11:53:22;3.30;;;0.80;;
16254;SDS011;8235;52.198;9.904;2022-09-19T11:56:13;4.37;;;1.33;;
16254;SDS011;8235;52.198;9.904;2022-09-19T11:59:02;7.77;;;1.30;;
16254;SDS011;8235;52.198;9.904;2022-09-19T12:01:36;2.07;;;0.70;;
16254;SDS011;8235;52.198;9.904;2022-09-19T12:04:16;2.93;;;0.80;;
16254;SDS011;8235;52.198;9.904;2022-09-19T12:06:55;4.13;;;1.10;;
16254;SDS011;8235;52.198;9.904;2022-09-19T12:09:35;2.23;;;0.70;;
16254;SDS011;8235;52.198;9.904;2022-09-19T12:12:09;1.37;;;0.43;;
16254;SDS011;8235;52.198;9.904;2022-09-19T12:14:40;2.57;;;0.53;;
16254;SDS011;8235;52.198;9.904;2022-09-19T12:17:11;2.37;;;0.40;;
16254;SDS011;8235;52.198;9.904;2022-09-19T12:19:45;2.20;;;0.70;;
16254;SDS011;8235;52.198;9.904;2022-09-19T12:22:15;1.13;;;0.30;;
16254;SDS011;8235;52.198;9.904;2022-09-19T12:24:47;1.63;;;0.30;;
16254;SDS011;8235;52.198;9.904;2022-09-19T12:27:21;0.73;;;0.30;;
16254;SDS011;8235;52.198;9.904;2022-09-19T12:29:55;2.10;;;0.50;;
16254;SDS011;8235;52.198;9.904;2022-09-19T12:32:30;1.77;;;0.60;;
16254;SDS011;8235;52.198;9.904;2022-09-19T12:35:11;3.13;;;1.13;;
16254;SDS011;8235;52.198;9.904;2022-09-19T12:37:44;2.90;;;0.67;;
16254;SDS011;8235;52.198;9.904;2022-09-19T12:40:19;3.43;;;0.93;;
16254;SDS011;8235;52.198;9.904;2022-09-19T12:42:54;2.60;;;0.50;;
16254;SDS011;8235;52.198;9.904;2022-09-19T12:45:27;3.63;;;0.87;;
16254;SDS011;8235;52.198;9.904;2022-09-19T12:48:02;4.37;;;1.17;;
16254;SDS011;8235;52.198;9.904;2022-09-19T12:50:40;4.10;;;1.37;;
16254;SDS011;8235;52.198;9.904;2022-09-19T12:53:10;5.87;;;1.10;;
16254;SDS011;8235;52.198;9.904;2022-09-19T12:55:50;5.47;;;1.30;;
16254;SDS011;8235;52.198;9.904;2022-09-19T12:58:23;6.17;;;0.90;;
16254;SDS011;8235;52.198;9.904;2022-09-19T13:00:54;5.50;;;1.43;;
16254;SDS011;8235;52.198;9.904;2022-09-19T13:03:38;6.43;;;1.43;;
16254;SDS011;8235;52.198;9.904;2022-09-19T13:06:10;3.07;;;1.00;;
16254;SDS011;8235;52.198;9.904;2022-09-19T13:08:44;7.10;;;1.10;;
16254;SDS011;8235;52.198;9.904;2022-09-19T13:11:14;2.97;;;1.07;;
16254;SDS011;8235;52.198;9.904;2022-09-19T13:13:46;2.87;;;0.77;;
16254;SDS011;8235;52.198;9.904;2022-09-19T13:16:25;1.77;;;0.80;;
16254;SDS011;8235;52.198;9.904;2022-09-19T13:18:54;2.27;;;0.70;;
16254;SDS011;8235;52.198;9.904;2022-09-19T13:21:41;3.53;;;0.80;;
16254;SDS011;8235;52.198;9.904;2022-09-19T13:24:29;3.80;;;0.67;;
16254;SDS011;8235;52.198;9.904;2022-09-19T13:27:03;3.37;;;0.90;;
16254;SDS011;8235;52.198;9.904;2022-09-19T13:29:44;3.83;;;1.00;;
16254;SDS011;8235;52.198;9.904;2022-09-19T13:32:35;2.07;;;0.70;;
16254;SDS011;8235;52.198;9.904;2022-09-19T13:35:17;3.27;;;0.83;;
16254;SDS011;8235;52.198;9.904;2022-09-19T13:37:58;4.87;;;1.00;;
16254;SDS011;8235;52.198;9.904;2022-09-19T13:43:22;2.97;;;0.70;;
16254;SDS011;8235;52.198;9.904;2022-09-19T13:45:56;5.23;;;1.00;;
16254;SDS011;8235;52.198;9.904;2022-09-19T13:48:33;2.30;;;0.87;;
16254;SDS011;8235;52.198;9.904;2022-09-19T13:51:05;2.80;;;0.73;;
16254;SDS011;8235;52.198;9.904;2022-09-19T13:53:38;3.23;;;0.60;;
16254;SDS011;8235;52.198;9.904;2022-09-19T13:56:22;1.87;;;0.60;;
16254;SDS011;8235;52.198;9.904;2022-09-19T13:59:07;2.40;;;0.60;;
16254;SDS011;8235;52.198;9.904;2022-09-19T14:01:52;1.50;;;0.50;;
16254;SDS011;8235;52.198;9.904;2022-09-19T14:04:21;2.43;;;0.60;;
16254;SDS011;8235;52.198;9.904;2022-09-19T14:07:07;3.03;;;0.70;;
16254;SDS011;8235;52.198;9.904;2022-09-19T14:09:44;2.70;;;0.47;;
16254;SDS011;8235;52.198;9.904;2022-09-19T14:21:07;4.83;;;1.33;;
16254;SDS011;8235;52.198;9.904;2022-09-19T14:23:36;3.33;;;1.20;;
16254;SDS011;8235;52.198;9.904;2022-09-19T14:26:10;3.30;;;1.03;;
16254;SDS011;8235;52.198;9.904;2022-09-19T14:29:04;5.37;;;0.93;;
16254;SDS011;8235;52.198;9.904;2022-09-19T14:31:48;4.17;;;1.63;;
16254;SDS011;8235;52.198;9.904;2022-09-19T14:34:38;4.93;;;1.77;;
16254;SDS011;8235;52.198;9.904;2022-09-19T14:37:34;5.53;;;1.47;;
16254;SDS011;8235;52.198;9.904;2022-09-19T14:40:16;5.33;;;1.07;;
16254;SDS011;8235;52.198;9.904;2022-09-19T14:43:01;8.87;;;1.60;;
16254;SDS011;8235;52.198;9.904;2022-09-19T14:45:52;4.77;;;1.53;;
16254;SDS011;8235;52.198;9.904;2022-09-19T14:48:43;2.50;;;1.17;;
16254;SDS011;8235;52.198;9.904;2022-09-19T14:51:19;5.13;;;1.27;;
16254;SDS011;8235;52.198;9.904;2022-09-19T14:53:58;5.63;;;1.10;;
16254;SDS011;8235;52.198;9.904;2022-09-19T14:56:31;4.23;;;1.40;;
16254;SDS011;8235;52.198;9.904;2022-09-19T14:59:02;2.57;;;0.50;;
16254;SDS011;8235;52.198;9.904;2022-09-19T15:01:30;3.57;;;0.50;;
16254;SDS011;8235;52.198;9.904;2022-09-19T15:03:59;3.60;;;0.73;;
16254;SDS011;8235;52.198;9.904;2022-09-19T15:06:28;6.63;;;0.87;;
16254;SDS011;8235;52.198;9.904;2022-09-19T15:08:57;1.43;;;0.40;;
16254;SDS011;8235;52.198;9.904;2022-09-19T15:11:24;2.30;;;0.40;;
16254;SDS011;8235;52.198;9.904;2022-09-19T15:13:53;0.80;;;0.40;;
16254;SDS011;8235;52.198;9.904;2022-09-19T15:16:22;1.40;;;0.30;;
16254;SDS011;8235;52.198;9.904;2022-09-19T15:18:50;1.27;;;0.40;;
16254;SDS011;8235;52.198;9.904;2022-09-19T15:21:20;0.60;;;0.40;;
16254;SDS011;8235;52.198;9.904;2022-09-19T15:23:49;1.60;;;0.40;;
16254;SDS011;8235;52.198;9.904;2022-09-19T15:26:21;1.60;;;0.37;;
16254;SDS011;8235;52.198;9.904;2022-09-19T15:28:54;1.20;;;0.80;;
16254;SDS011;8235;52.198;9.904;2022-09-19T15:31:24;2.20;;;0.70;;
16254;SDS011;8235;52.198;9.904;2022-09-19T15:33:54;2.30;;;0.90;;
16254;SDS011;8235;52.198;9.904;2022-09-19T15:36:26;1.40;;;0.80;;
16254;SDS011;8235;52.198;9.904;2022-09-19T15:38:54;1.53;;;0.73;;
16254;SDS011;8235;52.198;9.904;2022-09-19T15:41:23;1.40;;;0.60;;
16254;SDS011;8235;52.198;9.904;2022-09-19T15:43:53;2.43;;;0.80;;
16254;SDS011;8235;52.198;9.904;2022-09-19T15:46:35;2.17;;;1.10;;
16254;SDS011;8235;52.198;9.904;2022-09-19T15:49:06;11.63;;;1.60;;
16254;SDS011;8235;52.198;9.904;2022-09-19T15:51:51;17.13;;;2.03;;
16254;SDS011;8235;52.198;9.904;2022-09-19T15:54:20;9.47;;;1.13;;
16254;SDS011;8235;52.198;9.904;2022-09-19T15:56:52;2.80;;;0.60;;
16254;SDS011;8235;52.198;9.904;2022-09-19T15:59:21;30.57;;;3.00;;